createdAt,value
2018-10-17T00:02:19.610Z,12.70
2018-10-17T00:04:47.829Z,11.47
2018-10-17T00:07:16.077Z,12.53
2018-10-17T00:09:44.191Z,9.93
2018-10-17T00:12:12.382Z,12.63
2018-10-17T00:14:40.687Z,16.03
2018-10-17T00:17:09.488Z,12.17
2018-10-17T00:19:37.842Z,13.30
2018-10-17T00:22:06.187Z,13.17
2018-10-17T00:24:34.362Z,10.90
2018-10-17T00:27:02.548Z,11.97
2018-10-17T00:29:30.719Z,12.07
2018-10-17T00:31:58.943Z,11.00
2018-10-17T00:34:27.151Z,12.13
2018-10-17T00:36:55.346Z,10.63
2018-10-17T00:39:23.519Z,11.73
2018-10-17T00:41:51.734Z,11.57
2018-10-17T00:44:19.986Z,11.70
2018-10-17T00:46:48.190Z,11.03
2018-10-17T00:49:16.435Z,11.17
2018-10-17T00:51:44.582Z,10.63
2018-10-17T00:54:12.830Z,10.53
2018-10-17T00:56:41.025Z,10.87
2018-10-17T00:59:10.527Z,8.90
2018-10-17T01:01:39.178Z,10.90
2018-10-17T01:04:07.613Z,10.80
2018-10-17T01:06:36.207Z,11.17
2018-10-17T01:09:06.958Z,11.57
2018-10-17T01:11:35.743Z,9.73
2018-10-17T01:14:04.210Z,11.57
2018-10-17T01:16:32.606Z,11.83
2018-10-17T01:19:01.170Z,9.70
2018-10-17T01:21:29.431Z,12.40
2018-10-17T01:23:57.615Z,10.70
2018-10-17T01:26:25.869Z,10.93
2018-10-17T01:28:54.009Z,11.23
2018-10-17T01:31:22.242Z,13.13
2018-10-17T01:33:50.415Z,9.60
2018-10-17T01:36:18.654Z,11.57
2018-10-17T01:38:46.839Z,10.20
2018-10-17T01:41:15.030Z,12.70
2018-10-17T01:43:43.216Z,11.30
2018-10-17T01:46:11.361Z,10.93
2018-10-17T01:48:39.611Z,9.80
2018-10-17T01:51:07.798Z,9.90
2018-10-17T01:53:35.978Z,10.10
2018-10-17T01:56:04.225Z,12.67
2018-10-17T01:58:32.526Z,10.20
2018-10-17T02:01:00.806Z,10.27
2018-10-17T02:03:28.990Z,11.60
2018-10-17T02:05:57.258Z,13.67
2018-10-17T02:08:25.473Z,14.27
2018-10-17T02:10:53.716Z,14.53
2018-10-17T02:13:22.590Z,20.87
2018-10-17T02:15:52.618Z,16.00
2018-10-17T02:18:20.955Z,15.30
2018-10-17T02:20:49.619Z,13.90
2018-10-17T02:23:17.829Z,15.70
2018-10-17T02:25:45.985Z,14.23
2018-10-17T02:28:14.218Z,13.03
2018-10-17T02:30:42.465Z,16.97
2018-10-17T02:33:10.643Z,15.83
2018-10-17T02:35:38.802Z,17.00
2018-10-17T02:38:07.039Z,18.80
2018-10-17T02:40:35.268Z,16.97
2018-10-17T02:43:03.669Z,16.20
2018-10-17T02:45:31.877Z,13.13
2018-10-17T02:48:00.072Z,17.50
2018-10-17T02:50:28.268Z,16.23
2018-10-17T02:52:56.553Z,19.00
2018-10-17T02:55:24.696Z,14.67
2018-10-17T02:57:53.007Z,20.03
2018-10-17T03:00:21.170Z,13.73
2018-10-17T03:02:49.436Z,15.53
2018-10-17T03:05:17.861Z,12.77
2018-10-17T03:07:45.940Z,12.70
2018-10-17T03:10:14.138Z,13.40
2018-10-17T03:12:42.295Z,13.17
2018-10-17T03:15:10.515Z,10.87
2018-10-17T03:17:38.710Z,9.73
2018-10-17T03:20:08.349Z,12.30
2018-10-17T03:22:36.531Z,9.97
2018-10-17T03:25:04.993Z,10.83
2018-10-17T03:27:33.166Z,12.87
2018-10-17T03:30:01.359Z,12.63
2018-10-17T03:32:29.546Z,13.03
2018-10-17T03:34:57.808Z,10.70
2018-10-17T03:37:25.923Z,14.17
2018-10-17T03:39:54.109Z,10.17
2018-10-17T03:42:22.278Z,13.07
2018-10-17T03:44:50.471Z,11.17
2018-10-17T03:47:18.770Z,10.23
2018-10-17T03:49:46.835Z,10.53
2018-10-17T03:52:14.952Z,10.57
2018-10-17T03:54:43.198Z,10.73
2018-10-17T03:57:11.390Z,10.30
2018-10-17T03:59:39.784Z,10.87
2018-10-17T04:02:07.788Z,10.03
2018-10-17T04:04:35.985Z,12.17
2018-10-17T04:07:04.242Z,11.90
2018-10-17T04:09:32.395Z,13.10
2018-10-17T04:12:00.551Z,10.93
2018-10-17T04:14:28.724Z,11.33
2018-10-17T04:16:56.914Z,12.07
2018-10-17T04:19:25.134Z,11.77
2018-10-17T04:21:53.327Z,11.00
2018-10-17T04:24:21.587Z,9.83
2018-10-17T04:26:49.819Z,9.80
2018-10-17T04:29:17.998Z,10.03
2018-10-17T04:31:46.188Z,10.03
2018-10-17T04:34:14.394Z,9.77
2018-10-17T04:36:42.567Z,9.93
2018-10-17T04:39:11.935Z,12.53
2018-10-17T04:41:40.642Z,10.70
2018-10-17T04:44:09.943Z,15.13
2018-10-17T04:46:38.127Z,10.50
2018-10-17T04:49:06.942Z,10.10
2018-10-17T04:51:35.274Z,11.17
2018-10-17T04:54:03.494Z,9.77
2018-10-17T04:56:31.694Z,15.90
2018-10-17T04:58:59.983Z,11.27
2018-10-17T05:01:34.571Z,10.67
2018-10-17T05:04:02.901Z,12.03
2018-10-17T05:06:31.113Z,12.77
2018-10-17T05:08:59.312Z,11.47
2018-10-17T05:11:27.480Z,12.33
2018-10-17T05:13:55.645Z,11.03
2018-10-17T05:16:24.175Z,12.77
2018-10-17T05:18:52.437Z,12.07
2018-10-17T05:21:20.660Z,12.90
2018-10-17T05:23:48.848Z,12.70
2018-10-17T05:26:17.048Z,14.70
2018-10-17T05:28:45.290Z,13.33
2018-10-17T05:31:13.565Z,12.13
2018-10-17T05:33:41.675Z,15.40
2018-10-17T05:36:10.168Z,11.87
2018-10-17T05:38:38.397Z,11.27
2018-10-17T05:41:06.679Z,11.83
2018-10-17T05:43:34.795Z,11.33
2018-10-17T05:46:03.002Z,14.30
2018-10-17T05:48:31.180Z,11.83
2018-10-17T05:50:59.429Z,13.20
2018-10-17T05:53:27.648Z,13.43
2018-10-17T05:55:55.858Z,10.73
2018-10-17T05:58:24.055Z,12.23
2018-10-17T06:00:52.252Z,11.13
2018-10-17T06:03:20.448Z,11.33
2018-10-17T06:05:48.651Z,12.13
2018-10-17T06:08:16.862Z,11.53
2018-10-17T06:10:45.064Z,11.87
2018-10-17T06:13:13.301Z,13.77
2018-10-17T06:15:41.522Z,11.97
2018-10-17T06:18:09.747Z,13.87
2018-10-17T06:20:38.460Z,13.23
2018-10-17T06:23:06.875Z,11.37
2018-10-17T06:25:35.302Z,12.10
2018-10-17T06:28:03.463Z,15.07
2018-10-17T06:30:31.694Z,16.10
2018-10-17T06:32:59.973Z,16.40
2018-10-17T06:35:28.162Z,16.40
2018-10-17T06:37:56.376Z,14.07
2018-10-17T06:40:24.536Z,13.23
2018-10-17T06:42:52.775Z,16.27
2018-10-17T06:45:21.016Z,14.47
2018-10-17T06:47:49.215Z,16.50
2018-10-17T06:50:17.418Z,18.00
2018-10-17T06:52:45.626Z,14.20
2018-10-17T06:55:13.929Z,15.13
2018-10-17T06:57:42.067Z,15.37
2018-10-17T07:00:11.007Z,16.20
2018-10-17T07:02:39.291Z,16.30
2018-10-17T07:05:08.272Z,21.07
2018-10-17T07:07:36.460Z,16.83
2018-10-17T07:10:04.743Z,14.67
2018-10-17T07:12:32.971Z,16.30
2018-10-17T07:15:01.194Z,15.77
2018-10-17T07:17:30.222Z,20.43
2018-10-17T07:19:58.384Z,25.80
2018-10-17T07:22:26.551Z,17.80
2018-10-17T07:24:54.836Z,21.60
2018-10-17T07:27:23.058Z,26.70
2018-10-17T07:29:51.510Z,27.60
2018-10-17T07:32:19.514Z,19.17
2018-10-17T07:34:47.691Z,17.93
2018-10-17T07:37:15.914Z,15.77
2018-10-17T07:39:44.103Z,13.87
2018-10-17T07:42:12.493Z,14.07
2018-10-17T07:44:40.614Z,21.27
2018-10-17T07:47:08.810Z,18.33
2018-10-17T07:49:37.115Z,22.50
2018-10-17T07:52:05.755Z,17.73
2018-10-17T07:54:33.954Z,19.60
2018-10-17T07:57:02.160Z,16.43
2018-10-17T07:59:30.380Z,16.33
2018-10-17T08:01:58.565Z,16.07
2018-10-17T08:04:26.730Z,19.43
2018-10-17T08:06:54.967Z,18.07
2018-10-17T08:09:23.229Z,19.93
2018-10-17T08:11:51.658Z,18.70
2018-10-17T08:14:20.281Z,20.27
2018-10-17T08:16:48.765Z,17.43
2018-10-17T08:19:17.059Z,19.93
2018-10-17T08:21:45.653Z,20.33
2018-10-17T08:24:13.917Z,15.17
2018-10-17T08:26:42.511Z,14.97
2018-10-17T08:29:10.856Z,18.30
2018-10-17T08:31:39.072Z,16.37
2018-10-17T08:34:07.338Z,19.57
2018-10-17T08:36:35.700Z,16.43
2018-10-17T08:39:05.472Z,13.80
2018-10-17T08:41:33.650Z,17.10
2018-10-17T08:44:01.896Z,17.17
2018-10-17T08:46:30.103Z,17.27
2018-10-17T08:48:58.271Z,13.90
2018-10-17T08:51:26.428Z,17.30
2018-10-17T08:53:54.659Z,16.17
2018-10-17T08:56:22.860Z,16.73
2018-10-17T08:58:51.898Z,15.27
2018-10-17T09:01:20.073Z,13.80
2018-10-17T09:03:48.246Z,13.87
2018-10-17T09:06:22.699Z,14.60
2018-10-17T09:08:50.947Z,13.73
2018-10-17T09:11:19.131Z,13.03
2018-10-17T09:13:47.336Z,11.77
2018-10-17T09:16:15.589Z,11.37
2018-10-17T09:18:43.787Z,12.13
2018-10-17T09:21:12.147Z,11.87
2018-10-17T09:23:40.386Z,13.03
2018-10-17T09:26:08.575Z,13.63
2018-10-17T09:28:37.189Z,13.63
2018-10-17T09:31:05.883Z,16.93
2018-10-17T09:33:34.796Z,16.77
2018-10-17T09:36:03.226Z,16.57
2018-10-17T09:38:32.606Z,14.73
2018-10-17T09:41:01.215Z,17.80
2018-10-17T09:43:29.457Z,14.13
2018-10-17T09:45:58.047Z,13.60
2018-10-17T09:48:26.638Z,15.00
2018-10-17T09:50:54.912Z,15.60
2018-10-17T09:53:23.095Z,12.13
2018-10-17T09:55:51.399Z,20.10
2018-10-17T09:58:20.025Z,15.97
2018-10-17T10:00:53.461Z,11.93
2018-10-17T10:03:21.828Z,14.33
2018-10-17T10:05:50.087Z,11.27
2018-10-17T10:08:18.256Z,15.73
2018-10-17T10:10:46.434Z,15.63
2018-10-17T10:13:14.614Z,15.53
2018-10-17T10:15:42.791Z,12.97
2018-10-17T10:18:11.259Z,12.37
2018-10-17T10:20:39.451Z,19.63
2018-10-17T10:23:07.778Z,13.57
2018-10-17T10:25:35.875Z,14.10
2018-10-17T10:28:04.362Z,18.13
2018-10-17T10:30:32.515Z,15.53
2018-10-17T10:33:00.692Z,13.77
2018-10-17T10:35:28.955Z,13.13
2018-10-17T10:37:57.585Z,14.40
2018-10-17T10:40:25.801Z,14.53
2018-10-17T10:42:54.036Z,15.20
2018-10-17T10:45:22.319Z,13.03
2018-10-17T10:47:50.423Z,11.90
2018-10-17T10:50:18.720Z,13.37
2018-10-17T10:52:46.840Z,14.60
2018-10-17T10:55:15.191Z,14.87
2018-10-17T10:57:43.678Z,14.47
2018-10-17T11:00:12.720Z,14.10
2018-10-17T11:02:40.912Z,12.80
2018-10-17T11:05:09.160Z,11.83
2018-10-17T11:07:37.310Z,11.17
2018-10-17T11:10:05.598Z,11.90
2018-10-17T11:12:33.891Z,11.40
2018-10-17T11:15:02.283Z,12.30
2018-10-17T11:17:30.515Z,12.50
2018-10-17T11:20:00.439Z,14.50
2018-10-17T11:22:28.775Z,11.60
2018-10-17T11:24:57.100Z,15.03
2018-10-17T11:27:25.412Z,14.20
2018-10-17T11:29:53.914Z,16.57
2018-10-17T11:32:22.124Z,14.17
2018-10-17T11:34:50.307Z,19.87
2018-10-17T11:37:18.509Z,15.03
2018-10-17T11:39:46.852Z,14.83
2018-10-17T11:42:15.044Z,11.67
2018-10-17T11:44:43.275Z,12.43
2018-10-17T11:47:11.549Z,13.07
2018-10-17T11:49:39.712Z,13.10
2018-10-17T11:52:07.915Z,15.63
2018-10-17T11:54:36.121Z,11.80
2018-10-17T11:57:04.628Z,11.43
2018-10-17T11:59:32.798Z,11.20
2018-10-17T12:02:00.956Z,10.83
2018-10-17T12:04:29.387Z,11.77
2018-10-17T12:06:57.353Z,10.93
2018-10-17T12:09:25.532Z,10.67
2018-10-17T12:11:53.749Z,10.57
2018-10-17T12:14:21.921Z,11.97
2018-10-17T12:16:50.187Z,10.40
2018-10-17T12:19:18.542Z,14.03
2018-10-17T12:21:46.637Z,32.13
2018-10-17T12:24:14.927Z,22.83
2018-10-17T12:26:43.125Z,14.13
2018-10-17T12:29:11.342Z,16.67
2018-10-17T12:31:39.541Z,16.13
2018-10-17T12:34:08.030Z,18.17
2018-10-17T12:36:36.231Z,15.27
2018-10-17T12:39:06.821Z,23.23
2018-10-17T12:41:35.066Z,16.83
2018-10-17T12:44:04.549Z,10.70
2018-10-17T12:46:32.707Z,11.73
2018-10-17T12:49:01.016Z,12.77
2018-10-17T12:51:29.203Z,12.83
2018-10-17T12:53:57.384Z,12.63
2018-10-17T12:56:25.611Z,12.43
2018-10-17T12:58:53.849Z,13.07
2018-10-17T13:01:22.051Z,10.67
2018-10-17T13:03:50.235Z,12.07
2018-10-17T13:06:18.477Z,11.63
2018-10-17T13:08:46.677Z,12.43
2018-10-17T13:11:15.032Z,9.33
2018-10-17T13:13:43.415Z,11.27
2018-10-17T13:16:11.910Z,9.30
2018-10-17T13:18:40.226Z,10.00
2018-10-17T13:21:08.783Z,15.47
2018-10-17T13:23:36.968Z,12.20
2018-10-17T13:26:06.738Z,12.03
2018-10-17T13:28:35.123Z,12.33
2018-10-17T13:31:03.976Z,12.13
2018-10-17T13:33:32.122Z,16.47
2018-10-17T13:36:00.284Z,13.40
2018-10-17T13:38:28.556Z,13.37
2018-10-17T13:40:56.806Z,9.73
2018-10-17T13:43:25.104Z,13.00
2018-10-17T13:45:53.349Z,14.97
2018-10-17T13:48:21.527Z,13.43
2018-10-17T13:50:49.882Z,13.87
2018-10-17T13:53:18.175Z,11.20
2018-10-17T13:55:46.299Z,13.70
2018-10-17T13:58:14.605Z,11.03
2018-10-17T14:00:42.750Z,180.27
2018-10-17T14:03:10.973Z,18.83
2018-10-17T14:05:39.248Z,11.13
2018-10-17T14:08:07.555Z,14.57
2018-10-17T14:10:35.763Z,13.57
2018-10-17T14:13:03.960Z,13.97
2018-10-17T14:15:32.155Z,16.10
2018-10-17T14:18:00.438Z,15.27
2018-10-17T14:20:28.731Z,15.20
2018-10-17T14:22:56.935Z,16.30
2018-10-17T14:25:25.399Z,13.70
2018-10-17T14:27:53.600Z,12.97
2018-10-17T14:30:21.827Z,18.57
2018-10-17T14:32:49.994Z,16.40
2018-10-17T14:35:18.243Z,15.13
2018-10-17T14:37:46.495Z,14.07
2018-10-17T14:40:14.766Z,20.73
2018-10-17T14:42:42.973Z,17.00
2018-10-17T14:45:11.585Z,17.27
2018-10-17T14:47:40.339Z,18.23
2018-10-17T14:50:08.599Z,17.53
2018-10-17T14:52:37.131Z,15.80
2018-10-17T14:55:05.896Z,15.87
2018-10-17T14:57:34.126Z,17.50
2018-10-17T15:00:02.380Z,17.43
2018-10-17T15:02:30.702Z,18.83
2018-10-17T15:04:58.967Z,16.90
2018-10-17T15:07:27.117Z,20.97
2018-10-17T15:09:55.336Z,21.13
2018-10-17T15:12:23.527Z,17.33
2018-10-17T15:14:51.756Z,20.47
2018-10-17T15:17:19.947Z,17.90
2018-10-17T15:19:48.126Z,21.20
2018-10-17T15:22:16.364Z,18.03
2018-10-17T15:24:44.748Z,20.53
2018-10-17T15:27:13.263Z,20.20
2018-10-17T15:29:41.464Z,20.17
2018-10-17T15:32:09.669Z,17.30
2018-10-17T15:34:37.894Z,20.93
2018-10-17T15:37:06.293Z,19.27
2018-10-17T15:39:34.387Z,16.40
2018-10-17T15:42:02.604Z,13.90
2018-10-17T15:44:30.891Z,17.13
2018-10-17T15:47:01.367Z,16.90
2018-10-17T15:49:29.748Z,16.90
2018-10-17T15:51:57.939Z,15.40
2018-10-17T15:54:26.188Z,15.67
2018-10-17T15:56:55.104Z,15.50
2018-10-17T15:59:23.770Z,13.10
2018-10-17T16:01:51.992Z,16.23
2018-10-17T16:04:20.214Z,16.40
2018-10-17T16:06:49.021Z,14.40
2018-10-17T16:09:17.262Z,15.73
2018-10-17T16:11:45.549Z,17.40
2018-10-17T16:14:13.759Z,15.27
2018-10-17T16:16:41.851Z,13.70
2018-10-17T16:19:10.151Z,14.20
2018-10-17T16:21:38.362Z,21.30
2018-10-17T16:24:06.660Z,16.73
2018-10-17T16:26:34.815Z,17.83
2018-10-17T16:29:02.975Z,20.87
2018-10-17T16:31:31.203Z,14.80
2018-10-17T16:33:59.417Z,15.43
2018-10-17T16:36:27.602Z,18.03
2018-10-17T16:38:55.747Z,15.33
2018-10-17T16:41:24.029Z,14.43
2018-10-17T16:43:52.166Z,17.43
2018-10-17T16:46:20.317Z,16.50
2018-10-17T16:48:48.498Z,21.77
2018-10-17T16:51:16.753Z,19.80
2018-10-17T16:53:44.978Z,15.67
2018-10-17T16:56:13.256Z,18.03
2018-10-17T16:58:41.536Z,15.27
2018-10-17T17:01:09.673Z,14.80
2018-10-17T17:03:37.878Z,23.03
2018-10-17T17:06:06.308Z,15.60
2018-10-17T17:08:34.499Z,20.27
2018-10-17T17:11:02.752Z,15.47
2018-10-17T17:13:30.972Z,18.63
2018-10-17T17:15:59.135Z,19.47
2018-10-17T17:18:27.311Z,22.83
2018-10-17T17:20:55.578Z,19.17
2018-10-17T17:23:24.808Z,19.60
2018-10-17T17:25:53.013Z,18.63
2018-10-17T17:28:21.232Z,17.60
2018-10-17T17:30:49.404Z,20.10
2018-10-17T17:33:17.673Z,19.40
2018-10-17T17:35:45.853Z,17.57
2018-10-17T17:38:14.047Z,20.63
2018-10-17T17:40:42.231Z,18.07
2018-10-17T17:43:10.471Z,19.63
2018-10-17T17:45:38.656Z,16.27
2018-10-17T17:48:07.275Z,18.90
2018-10-17T17:50:35.458Z,21.80
2018-10-17T17:53:03.632Z,19.80
2018-10-17T17:55:31.824Z,19.20
2018-10-17T17:58:00.106Z,18.93
2018-10-17T18:00:28.223Z,19.70
2018-10-17T18:02:56.458Z,20.20
2018-10-17T18:05:24.682Z,19.90
2018-10-17T18:07:52.834Z,20.80
2018-10-17T18:10:21.068Z,23.10
2018-10-17T18:12:49.319Z,19.37
2018-10-17T18:15:17.573Z,23.90
2018-10-17T18:17:45.810Z,19.53
2018-10-17T18:20:14.324Z,25.23
2018-10-17T18:22:42.613Z,23.70
2018-10-17T18:25:10.998Z,22.23
2018-10-17T18:27:39.893Z,21.53
2018-10-17T18:30:08.086Z,24.13
2018-10-17T18:32:36.568Z,21.33
2018-10-17T18:35:05.543Z,21.70
2018-10-17T18:37:33.756Z,25.60
2018-10-17T18:40:01.962Z,22.93
2018-10-17T18:42:30.319Z,19.97
2018-10-17T18:44:58.486Z,23.47
2018-10-17T18:47:26.712Z,22.40
2018-10-17T18:49:54.931Z,21.93
2018-10-17T18:52:23.416Z,25.57
2018-10-17T18:54:51.587Z,21.33
2018-10-17T18:57:19.808Z,23.50
2018-10-17T18:59:48.038Z,26.83
2018-10-17T19:02:16.408Z,26.43
2018-10-17T19:04:44.941Z,27.20
2018-10-17T19:07:13.220Z,26.33
2018-10-17T19:09:41.388Z,25.60
2018-10-17T19:12:09.580Z,23.23
2018-10-17T19:14:37.739Z,25.70
2018-10-17T19:17:06.117Z,25.67
2018-10-17T19:19:34.350Z,29.63
2018-10-17T19:22:02.573Z,27.50
2018-10-17T19:24:30.751Z,26.93
2018-10-17T19:26:58.949Z,28.43
2018-10-17T19:29:33.233Z,32.83
2018-10-17T19:32:02.562Z,28.83
2018-10-17T19:34:30.751Z,30.17
2018-10-17T19:36:58.928Z,31.00
2018-10-17T19:39:27.118Z,33.90
2018-10-17T19:41:55.437Z,35.13
2018-10-17T19:44:23.567Z,33.97
2018-10-17T19:46:51.772Z,34.20
2018-10-17T19:49:19.962Z,39.53
2018-10-17T19:51:48.238Z,33.20
2018-10-17T19:54:17.242Z,35.90
2018-10-17T19:56:45.456Z,34.60
2018-10-17T19:59:13.651Z,40.53
2018-10-17T20:01:41.837Z,38.63
2018-10-17T20:04:10.021Z,43.60
2018-10-17T20:06:38.218Z,41.83
2018-10-17T20:09:08.722Z,38.43
2018-10-17T20:11:36.933Z,40.03
2018-10-17T20:14:05.272Z,41.03
2018-10-17T20:16:33.435Z,39.57
2018-10-17T20:19:01.629Z,37.60
2018-10-17T20:21:29.823Z,42.43
2018-10-17T20:23:58.200Z,42.10
2018-10-17T20:26:26.458Z,47.23
2018-10-17T20:28:54.695Z,47.70
2018-10-17T20:31:22.918Z,44.53
2018-10-17T20:33:51.090Z,46.43
2018-10-17T20:36:19.411Z,43.23
2018-10-17T20:38:47.704Z,44.03
2018-10-17T20:41:15.918Z,46.67
2018-10-17T20:43:44.139Z,52.20
2018-10-17T20:46:12.312Z,53.87
2018-10-17T20:48:40.499Z,47.37
2018-10-17T20:51:08.759Z,47.27
2018-10-17T20:53:36.938Z,50.10
2018-10-17T20:56:05.245Z,53.87
2018-10-17T20:58:33.396Z,54.73
2018-10-17T21:01:01.645Z,53.50
2018-10-17T21:03:29.782Z,53.50
2018-10-17T21:05:57.984Z,52.27
2018-10-17T21:08:26.185Z,53.70
2018-10-17T21:10:54.374Z,54.73
2018-10-17T21:13:22.572Z,55.77
2018-10-17T21:15:50.748Z,52.40
2018-10-17T21:18:18.977Z,52.07
2018-10-17T21:20:47.832Z,54.33
2018-10-17T21:23:15.986Z,56.67
2018-10-17T21:25:44.310Z,56.77
2018-10-17T21:28:12.538Z,52.57
2018-10-17T21:30:40.755Z,57.27
2018-10-17T21:33:08.937Z,56.03
2018-10-17T21:35:37.099Z,53.97
2018-10-17T21:38:05.320Z,61.43
2018-10-17T21:40:33.476Z,63.07
2018-10-17T21:43:01.675Z,60.27
2018-10-17T21:45:29.845Z,57.80
2018-10-17T21:47:58.010Z,62.67
2018-10-17T21:50:26.211Z,59.20
2018-10-17T21:52:54.390Z,58.37
2018-10-17T21:55:24.159Z,65.37
2018-10-17T21:57:52.515Z,63.50
2018-10-17T22:00:21.705Z,63.10
2018-10-17T22:02:50.223Z,71.47
2018-10-17T22:05:18.683Z,64.33
2018-10-17T22:07:47.156Z,61.73
2018-10-17T22:10:15.348Z,61.97
2018-10-17T22:12:43.510Z,65.67
2018-10-17T22:15:12.279Z,67.40
2018-10-17T22:17:40.478Z,64.87
2018-10-17T22:20:08.775Z,62.97
2018-10-17T22:22:37.011Z,66.83
2018-10-17T22:25:06.037Z,66.80
2018-10-17T22:27:34.363Z,66.10
2018-10-17T22:30:02.598Z,69.93
2018-10-17T22:32:30.754Z,63.27
2018-10-17T22:34:58.902Z,70.07
2018-10-17T22:37:27.122Z,74.00
2018-10-17T22:39:55.726Z,59.23
2018-10-17T22:42:24.372Z,65.60
2018-10-17T22:44:52.677Z,65.23
2018-10-17T22:47:20.869Z,61.57
2018-10-17T22:49:49.364Z,61.10
2018-10-17T22:52:17.536Z,63.00
2018-10-17T22:54:45.719Z,66.17
2018-10-17T22:57:14.191Z,57.57
2018-10-17T22:59:42.487Z,64.67
2018-10-17T23:02:10.910Z,56.00
2018-10-17T23:04:39.095Z,52.83
2018-10-17T23:07:07.360Z,61.33
2018-10-17T23:09:36.537Z,63.70
2018-10-17T23:12:05.236Z,58.83
2018-10-17T23:14:33.656Z,61.10
2018-10-17T23:17:02.048Z,59.83
2018-10-17T23:19:30.484Z,57.63
2018-10-17T23:21:58.704Z,61.07
2018-10-17T23:24:26.863Z,60.10
2018-10-17T23:26:55.024Z,58.00
2018-10-17T23:29:23.187Z,57.10
2018-10-17T23:31:51.399Z,56.57
2018-10-17T23:34:19.572Z,55.73
2018-10-17T23:36:47.847Z,58.73
2018-10-17T23:39:16.008Z,57.63
2018-10-17T23:41:44.178Z,58.53
2018-10-17T23:44:12.396Z,55.67
2018-10-17T23:46:40.538Z,61.83
2018-10-17T23:49:08.705Z,57.73
2018-10-17T23:51:36.906Z,50.93
2018-10-17T23:54:05.174Z,49.63
2018-10-17T23:56:33.334Z,55.33
2018-10-17T23:59:01.555Z,57.07
